Flight Number: EUR2142 Duration: 1:30
Departure: Warsaw Okecie (EPWA) at 08:30 Distance: 485 Nm
Arrival: Frankfurt Airport (EDDF) at 10:00 Equipment: CRJ700

Weather Information
Warszawa-Okecie, Poland (EPWA) 52-10N 020-58E 107M Aug 17, 2018 - 05:00 PM EDT / 2018.08.17 2100 UTC
Wind: from the ESE (110 degrees) at 6 MPH (5 KT):0
Visibility: greater than 7 mile(s):0 Temperature: 71 F (22 C) Dew Point: 60 F (16 C) Relative Humidity: 68% Pressure (altimeter): 30.03 in. Hg (1017 hPa)
ob: EPWA 172100Z 11005KT CAVOK 22/16 Q1017 NOSIG cycle: 21
Sunrise: 03:27 Sunset: 17:52 (UTC)

Frankfurt / M-Flughafen, Germany (EDDF) 50-03N 008-36E 113M Aug 17, 2018 - 04:50 PM EDT / 2018.08.17 2050 UTC
Wind: from the NW (310 degrees) at 10 MPH (9 KT):0
Visibility: greater than 7 mile(s):0 Temperature: 69 F (21 C) Dew Point: 57 F (14 C) Relative Humidity: 64% Pressure (altimeter): 30.09 in. Hg (1019 hPa)
ob: EDDF 172050Z 31009KT CAVOK 21/14 Q1019 NOSIG cycle: 21
Sunrise: 04:23 Sunset: 18:36 (UTC)

TAF:2018/08/17 18:36 TAF AMD EDDF 171812Z 1718/1824 33012KT CAVOK TEMPO 1718/1720 33015G25KT BECMG 1719/1721 34005KT TEMPO 1719/1808 BKN040 BECMG 1808/1810 28006KT NSC

Previous Pireps for this route
Date Aircraft Flight time Fuel used Landing rate On time
2012-10-14CRJ70001.398593-277No
2012-10-22CRJ7001.3070000Yes
2012-10-28CRJ70001.405690-71No
2013-08-27CRJ7001.4658640No
2013-09-18CRJ7001.3368100No
2014-07-23CRJ70001.357520-145Yes
2014-07-27CRJ70001.257441-286Yes
2015-04-10CRJ7001.2750900Yes
(pireps marked green are flown by you)

Route map